Time;durP1;ratioP1;P1;durP2;ratioP2;P2;SDS_P1;SDS_P2;PMS_P1;PMS_P2;Temp;Humidity;BMP_temperature;BMP_pressure;BME280_temperature;BME280_humidity;BME280_pressure;Samples;Min_cycle;Max_cycle;Signal;HPM_P1;HPM_P2
2020/12/14 00:00:49;;;;;;;3.43;3.13;;;21.30;52.90;;;;;;5074855;28;20170;-66
2020/12/14 00:03:15;;;;;;;3.47;3.17;;;21.30;52.90;;;;;;5076219;28;20198;-67
2020/12/14 00:05:41;;;;;;;3.33;2.97;;;21.30;52.90;;;;;;5076349;28;20194;-66
2020/12/14 00:08:06;;;;;;;3.13;2.93;;;21.30;52.90;;;;;;5075572;28;20182;-66
2020/12/14 00:10:32;;;;;;;4.30;3.70;;;21.30;52.90;;;;;;5075466;28;20175;-66
2020/12/14 00:12:57;;;;;;;3.47;3.07;;;21.30;53.00;;;;;;5075186;28;20210;-66
2020/12/14 00:15:23;;;;;;;2.93;2.67;;;21.30;53.00;;;;;;5075368;28;20602;-66
2020/12/14 00:17:49;;;;;;;3.50;3.20;;;21.30;53.00;;;;;;5074163;28;20174;-66
2020/12/14 00:20:15;;;;;;;3.80;3.20;;;21.30;53.00;;;;;;5075335;28;20628;-66
2020/12/14 00:22:41;;;;;;;5.00;3.37;;;21.30;53.10;;;;;;5074303;28;20472;-67
2020/12/14 00:25:06;;;;;;;3.87;3.27;;;21.30;53.10;;;;;;5075068;28;20236;-66
2020/12/14 00:27:32;;;;;;;3.03;2.70;;;21.30;53.10;;;;;;5075194;28;20162;-66
2020/12/14 00:29:57;;;;;;;3.70;3.30;;;21.30;53.10;;;;;;5075419;28;20197;-66
2020/12/14 00:32:23;;;;;;;4.00;3.67;;;21.30;53.10;;;;;;5075051;28;20194;-66
2020/12/14 00:34:49;;;;;;;4.00;3.03;;;21.30;53.10;;;;;;5075065;28;20178;-66
2020/12/14 00:37:14;;;;;;;3.70;3.40;;;21.20;53.10;;;;;;5075015;28;20170;-66
2020/12/14 00:39:40;;;;;;;3.07;2.77;;;21.20;53.10;;;;;;5075229;28;20202;-66
2020/12/14 00:42:06;;;;;;;4.20;2.83;;;21.30;53.20;;;;;;5074795;28;20664;-66
2020/12/14 00:44:32;;;;;;;3.07;2.70;;;21.20;53.10;;;;;;5075066;28;20179;-65
2020/12/14 00:46:57;;;;;;;3.80;3.50;;;21.20;53.20;;;;;;5074819;28;20174;-66
2020/12/14 00:49:23;;;;;;;4.27;2.73;;;21.20;53.20;;;;;;5074693;28;20171;-66
2020/12/14 00:51:49;;;;;;;3.03;2.83;;;21.20;53.20;;;;;;5074615;28;20194;-66
2020/12/14 00:54:15;;;;;;;3.87;3.40;;;21.20;53.20;;;;;;5074669;28;20641;-66
2020/12/14 00:56:41;;;;;;;3.03;2.83;;;21.20;53.20;;;;;;5075091;28;20891;-66
2020/12/14 00:59:06;;;;;;;3.93;3.60;;;21.20;53.20;;;;;;5074804;28;20281;-66
2020/12/14 01:01:32;;;;;;;4.27;3.17;;;21.20;53.20;;;;;;5074393;28;20463;-66
2020/12/14 01:03:58;;;;;;;3.50;3.10;;;21.20;53.20;;;;;;5074463;28;20197;-66
2020/12/14 01:06:23;;;;;;;2.63;2.43;;;21.20;53.20;;;;;;5074296;28;20563;-66
2020/12/14 01:08:50;;;;;;;3.20;2.90;;;21.20;53.20;;;;;;5074310;28;20185;-66
2020/12/14 01:11:15;;;;;;;3.77;3.00;;;21.20;53.20;;;;;;5074561;28;20216;-66
2020/12/14 01:13:41;;;;;;;3.50;3.20;;;21.20;53.20;;;;;;5074191;28;20462;-66
2020/12/14 01:16:08;;;;;;;3.27;2.93;;;21.20;53.20;;;;;;5074161;28;20700;-66
2020/12/14 01:18:36;;;;;;;2.97;2.77;;;21.20;53.20;;;;;;5074113;28;20170;-66
2020/12/14 01:21:01;;;;;;;2.87;2.63;;;21.20;53.20;;;;;;5074057;28;20415;-66
2020/12/14 01:23:27;;;;;;;3.30;3.00;;;21.20;53.20;;;;;;5073969;28;20935;-66
2020/12/14 01:25:53;;;;;;;3.63;3.30;;;21.20;53.30;;;;;;5073916;28;20759;-65
2020/12/14 01:28:18;;;;;;;3.90;3.60;;;21.20;53.30;;;;;;5073904;28;20173;-65
2020/12/14 01:30:44;;;;;;;2.97;2.67;;;21.20;53.30;;;;;;5073944;28;20170;-66
2020/12/14 01:33:09;;;;;;;4.10;3.37;;;21.20;53.30;;;;;;5073703;28;20668;-67
2020/12/14 01:35:35;;;;;;;3.40;2.90;;;21.20;53.30;;;;;;5073800;28;20174;-66
2020/12/14 01:38:01;;;;;;;3.30;3.00;;;21.20;53.30;;;;;;5072490;28;20204;-66
2020/12/14 01:40:26;;;;;;;2.80;2.60;;;21.20;53.30;;;;;;5073721;28;20170;-67
2020/12/14 01:42:52;;;;;;;2.90;2.70;;;21.20;53.30;;;;;;5073855;28;20202;-67
2020/12/14 01:45:18;;;;;;;3.57;3.13;;;21.20;53.30;;;;;;5073550;28;20194;-67
2020/12/14 01:47:47;;;;;;;3.50;2.70;;;21.20;53.30;;;;;;5073572;28;20173;-67
2020/12/14 01:50:13;;;;;;;3.17;2.73;;;21.20;53.30;;;;;;5073517;28;20405;-67
2020/12/14 01:52:44;;;;;;;3.57;3.27;;;21.20;53.40;;;;;;5073706;28;20550;-67
2020/12/14 01:55:13;;;;;;;3.40;3.03;;;21.20;53.40;;;;;;5073505;28;20198;-67
2020/12/14 01:57:39;;;;;;;2.80;2.60;;;21.20;53.40;;;;;;5073445;28;20393;-67
2020/12/14 02:00:07;;;;;;;3.00;2.70;;;21.10;53.30;;;;;;5073439;28;20972;-67
2020/12/14 02:02:33;;;;;;;2.97;2.63;;;21.20;53.40;;;;;;5073335;28;20608;-67
2020/12/14 02:05:00;;;;;;;3.20;2.90;;;21.10;53.30;;;;;;5073334;28;20783;-67
2020/12/14 02:07:26;;;;;;;3.20;2.90;;;21.10;54.00;;;;;;5073329;28;20409;-67
2020/12/14 02:09:55;;;;;;;3.37;2.80;;;21.10;53.40;;;;;;5072036;28;20509;-67
2020/12/14 02:12:23;;;;;;;4.40;3.53;;;21.10;53.40;;;;;;5073015;28;20452;-67
2020/12/14 02:14:53;;;;;;;2.97;2.70;;;21.10;53.40;;;;;;5073267;28;20832;-68
2020/12/14 02:17:20;;;;;;;3.27;2.87;;;21.10;53.40;;;;;;5073529;28;20381;-67
2020/12/14 02:19:47;;;;;;;3.30;3.00;;;21.10;53.40;;;;;;5073147;28;20504;-67
2020/12/14 02:22:15;;;;;;;3.10;2.80;;;21.10;53.40;;;;;;5073156;28;20429;-67
2020/12/14 02:24:45;;;;;;;2.80;2.60;;;21.10;53.40;;;;;;5073124;28;20401;-67
2020/12/14 02:27:13;;;;;;;2.97;2.73;;;21.10;53.50;;;;;;5073429;28;20412;-67
2020/12/14 02:29:42;;;;;;;2.90;2.50;;;21.10;53.40;;;;;;5073205;28;20408;-67
2020/12/14 02:32:11;;;;;;;4.40;4.00;;;21.10;53.50;;;;;;5073226;28;20837;-67
2020/12/14 02:34:40;;;;;;;3.13;2.70;;;21.10;53.40;;;;;;5073134;28;20409;-67
2020/12/14 02:37:11;;;;;;;3.20;2.90;;;21.10;53.40;;;;;;5073059;28;20408;-67
2020/12/14 02:39:38;;;;;;;2.93;2.63;;;21.10;53.40;;;;;;5073282;28;20438;-67
2020/12/14 02:42:25;;;;;;;4.03;3.03;;;21.10;53.40;;;;;;5073146;28;20428;-67
2020/12/14 02:44:51;;;;;;;2.80;2.60;;;21.10;53.40;;;;;;5072735;28;20409;-67
2020/12/14 02:47:17;;;;;;;3.80;3.00;;;21.10;53.40;;;;;;5076706;28;20452;-67
2020/12/14 02:49:44;;;;;;;3.37;2.80;;;21.10;53.40;;;;;;5077041;28;20437;-67
2020/12/14 02:52:11;;;;;;;3.53;2.83;;;21.10;53.40;;;;;;5076880;28;20190;-67
2020/12/14 02:54:38;;;;;;;2.93;2.73;;;21.10;53.40;;;;;;5076952;28;20882;-67
2020/12/14 02:57:04;;;;;;;3.30;3.00;;;21.10;53.40;;;;;;5076913;28;20929;-67
2020/12/14 02:59:29;;;;;;;2.97;2.67;;;21.10;53.40;;;;;;5077047;28;20489;-67
2020/12/14 03:01:55;;;;;;;2.70;2.50;;;21.10;53.40;;;;;;5076890;28;20219;-67
2020/12/14 03:04:21;;;;;;;3.17;2.97;;;21.10;53.50;;;;;;5076708;28;20170;-67
2020/12/14 03:06:48;;;;;;;2.60;2.40;;;21.10;53.50;;;;;;5076908;28;20198;-67
2020/12/14 03:09:15;;;;;;;2.83;2.63;;;21.10;53.40;;;;;;5076863;28;20416;-67
2020/12/14 03:11:42;;;;;;;2.53;2.33;;;21.10;53.40;;;;;;5076593;28;20440;-67
2020/12/14 03:14:08;;;;;;;3.50;3.03;;;21.10;53.50;;;;;;5076785;28;20766;-67
2020/12/14 03:16:41;;;;;;;3.80;2.50;;;21.10;53.50;;;;;;5076439;28;20903;-66
2020/12/14 03:19:07;;;;;;;4.17;2.90;;;21.10;53.50;;;;;;5076624;28;20785;-67
2020/12/14 03:21:32;;;;;;;2.63;2.43;;;21.10;53.50;;;;;;5076388;28;20424;-67
2020/12/14 03:23:58;;;;;;;2.40;2.20;;;21.10;53.50;;;;;;5076402;28;20409;-67
2020/12/14 03:26:24;;;;;;;2.47;2.27;;;21.10;53.50;;;;;;5076537;28;20193;-67
2020/12/14 03:28:49;;;;;;;3.20;2.50;;;21.10;53.50;;;;;;5076420;28;20170;-67
2020/12/14 03:31:15;;;;;;;2.80;2.50;;;21.10;53.50;;;;;;5074910;28;20166;-67
2020/12/14 03:33:40;;;;;;;4.70;2.63;;;21.10;53.50;;;;;;5076429;28;20170;-67
2020/12/14 03:36:06;;;;;;;3.40;2.60;;;21.10;53.60;;;;;;5076245;28;20260;-67
2020/12/14 03:38:32;;;;;;;2.50;2.30;;;21.10;53.60;;;;;;5076096;28;20253;-67
2020/12/14 03:41:03;;;;;;;4.17;2.77;;;21.10;53.60;;;;;;5076309;28;20171;-67
2020/12/14 03:43:28;;;;;;;2.50;2.30;;;21.10;53.60;;;;;;5076047;28;20158;-67
2020/12/14 03:45:54;;;;;;;2.67;2.37;;;21.00;53.50;;;;;;5075891;28;20981;-66
2020/12/14 03:48:20;;;;;;;2.50;2.30;;;21.10;53.60;;;;;;5075876;28;20166;-67
2020/12/14 03:50:46;;;;;;;2.80;2.40;;;21.00;53.50;;;;;;5076014;28;20220;-67
2020/12/14 03:53:12;;;;;;;2.43;2.23;;;21.00;53.60;;;;;;5075805;28;20182;-67
2020/12/14 03:55:37;;;;;;;3.57;3.10;;;21.00;53.60;;;;;;5075806;28;20409;-66
2020/12/14 03:58:03;;;;;;;2.93;2.63;;;21.00;53.50;;;;;;5074401;28;20409;-67
2020/12/14 04:00:28;;;;;;;2.97;2.60;;;21.00;53.50;;;;;;5075636;28;20179;-67
2020/12/14 04:02:54;;;;;;;2.60;2.30;;;21.00;53.60;;;;;;5075560;28;20255;-67
2020/12/14 04:05:20;;;;;;;3.23;2.20;;;21.00;53.50;;;;;;5075509;28;20193;-67
2020/12/14 04:07:45;;;;;;;3.03;2.40;;;21.00;53.50;;;;;;5075600;28;20539;-67
2020/12/14 04:10:11;;;;;;;2.67;2.43;;;21.00;53.50;;;;;;5075499;28;20167;-67
2020/12/14 04:12:37;;;;;;;2.80;2.50;;;21.00;53.50;;;;;;5075373;28;20205;-67
2020/12/14 04:15:02;;;;;;;3.37;2.70;;;21.00;53.50;;;;;;5075416;28;20202;-67
2020/12/14 04:17:28;;;;;;;2.43;2.13;;;21.00;53.50;;;;;;5075413;28;20181;-67
2020/12/14 04:19:54;;;;;;;2.63;2.40;;;21.00;53.50;;;;;;5075339;28;20478;-67
2020/12/14 04:22:19;;;;;;;3.60;2.40;;;21.00;53.50;;;;;;5075196;28;20191;-67
2020/12/14 04:24:45;;;;;;;3.10;2.37;;;21.00;53.50;;;;;;5075237;28;20193;-67
2020/12/14 04:27:10;;;;;;;2.90;2.60;;;21.00;53.50;;;;;;5075209;28;20163;-67
2020/12/14 04:29:36;;;;;;;2.10;1.83;;;21.10;53.60;;;;;;5075183;28;20167;-67
2020/12/14 04:32:01;;;;;;;2.80;2.30;;;21.10;53.60;;;;;;5075032;28;20190;-67
2020/12/14 04:34:27;;;;;;;3.23;2.90;;;21.10;53.60;;;;;;5075124;28;20171;-67
2020/12/14 04:36:53;;;;;;;3.30;3.00;;;21.00;53.50;;;;;;5075296;28;20178;-67
2020/12/14 04:39:19;;;;;;;2.77;2.57;;;21.00;53.50;;;;;;5075046;28;20162;-67
2020/12/14 04:41:45;;;;;;;2.53;2.33;;;21.00;53.50;;;;;;5075128;28;20198;-67
2020/12/14 04:44:11;;;;;;;2.47;2.27;;;21.00;53.50;;;;;;5074850;28;20492;-67
2020/12/14 04:46:38;;;;;;;2.70;2.30;;;21.00;53.50;;;;;;5075014;28;20217;-67
2020/12/14 04:49:05;;;;;;;4.03;2.57;;;21.00;53.50;;;;;;5074723;28;20491;-67
2020/12/14 04:51:36;;;;;;;2.20;2.00;;;21.00;53.50;;;;;;5075014;28;20467;-67
2020/12/14 04:54:02;;;;;;;2.57;2.37;;;21.00;53.50;;;;;;5075055;28;20389;-67
2020/12/14 04:56:28;;;;;;;2.47;2.27;;;21.00;53.60;;;;;;5074655;28;20412;-67
2020/12/14 04:58:57;;;;;;;2.43;2.20;;;21.00;53.50;;;;;;5074550;28;20489;-66
2020/12/14 05:01:24;;;;;;;2.40;1.90;;;21.00;53.50;;;;;;5074378;28;20490;-67
2020/12/14 05:03:50;;;;;;;4.23;2.60;;;21.00;53.60;;;;;;5074770;28;20923;-67
2020/12/14 05:06:16;;;;;;;2.80;2.40;;;21.00;53.60;;;;;;5074366;28;20436;-67
2020/12/14 05:08:42;;;;;;;2.23;2.03;;;21.00;53.60;;;;;;5074198;28;20918;-68
2020/12/14 05:11:10;;;;;;;2.93;2.73;;;21.00;53.60;;;;;;5074098;28;20171;-67
2020/12/14 05:13:36;;;;;;;2.37;2.10;;;20.90;53.50;;;;;;5074371;28;20190;-67
2020/12/14 05:16:02;;;;;;;2.57;2.37;;;21.00;53.60;;;;;;5074248;28;20989;-67
2020/12/14 05:18:28;;;;;;;2.60;2.00;;;20.90;53.60;;;;;;5074170;28;20416;-67
2020/12/14 05:21:01;;;;;;;3.13;2.47;;;20.90;53.60;;;;;;5074156;28;20417;-68
2020/12/14 05:23:30;;;;;;;2.00;1.80;;;21.00;53.60;;;;;;5074020;28;20190;-67
2020/12/14 05:26:11;;;;;;;2.67;2.40;;;20.90;53.60;;;;;;5073933;28;20819;-67
2020/12/14 05:28:37;;;;;;;1.87;1.73;;;20.90;53.60;;;;;;5073982;28;20409;-67
2020/12/14 05:31:03;;;;;;;2.80;2.60;;;20.90;53.60;;;;;;5073885;28;20399;-67
2020/12/14 05:33:31;;;;;;;4.20;2.20;;;20.90;53.60;;;;;;5074105;28;20213;-67
2020/12/14 05:35:57;;;;;;;3.90;2.10;;;20.90;53.60;;;;;;5073855;28;20167;-68
2020/12/14 05:38:30;;;;;;;2.90;2.23;;;20.90;53.70;;;;;;5073975;28;20409;-68
2020/12/14 05:41:01;;;;;;;2.33;1.90;;;20.90;53.70;;;;;;5073653;28;20423;-68
2020/12/14 05:43:31;;;;;;;3.53;2.33;;;20.90;53.60;;;;;;5073613;28;20942;-68
2020/12/14 05:46:11;;;;;;;2.27;1.97;;;20.90;53.60;;;;;;5073738;28;20458;-68
2020/12/14 05:48:37;;;;;;;3.13;2.50;;;21.00;53.60;;;;;;5073595;28;20480;-68
2020/12/14 05:51:04;;;;;;;2.30;1.60;;;20.90;53.60;;;;;;5073559;28;20432;-67
2020/12/14 05:53:41;;;;;;;2.23;2.03;;;20.90;53.60;;;;;;5073470;28;20162;-67
2020/12/14 05:56:08;;;;;;;2.33;2.00;;;21.00;53.60;;;;;;5074242;28;20397;-68
2020/12/14 05:58:36;;;;;;;2.50;2.27;;;20.90;53.60;;;;;;5073490;28;20405;-68
2020/12/14 06:01:04;;;;;;;2.40;1.87;;;21.00;53.60;;;;;;5072187;28;20421;-67
2020/12/14 06:03:30;;;;;;;2.23;2.03;;;21.00;53.50;;;;;;5072100;28;20914;-68
2020/12/14 06:06:03;;;;;;;2.00;1.80;;;21.00;53.50;;;;;;5073333;28;20440;-68
2020/12/14 06:08:44;;;;;;;3.43;2.30;;;21.00;53.40;;;;;;5073140;28;20174;-68
2020/12/14 06:11:10;;;;;;;4.23;3.23;;;21.10;53.40;;;;;;5073428;28;20408;-67
2020/12/14 06:13:49;;;;;;;2.10;1.90;;;21.00;53.40;;;;;;5071850;28;20509;-68
2020/12/14 06:16:20;;;;;;;2.70;2.27;;;21.10;53.40;;;;;;5073490;28;20431;-67
2020/12/14 06:18:46;;;;;;;3.23;2.70;;;21.10;53.40;;;;;;5073231;28;20412;-68
2020/12/14 06:21:28;;;;;;;2.30;2.10;;;21.10;53.40;;;;;;5072435;28;20416;-67
2020/12/14 06:23:55;;;;;;;2.33;2.10;;;21.10;53.30;;;;;;5073416;28;20789;-67
2020/12/14 06:26:23;;;;;;;2.33;2.13;;;21.10;53.30;;;;;;5073010;28;20448;-67
2020/12/14 06:28:53;;;;;;;2.20;1.77;;;21.10;53.30;;;;;;5073016;28;20491;-68
2020/12/14 06:31:39;;;;;;;2.10;1.83;;;21.10;53.30;;;;;;5072182;28;20416;-66
2020/12/14 06:34:30;;;;;;;3.00;2.00;;;21.10;53.30;;;;;;5072957;28;20400;-63
2020/12/14 06:36:56;;;;;;;2.03;1.83;;;21.10;53.30;;;;;;5064783;28;20436;-67
2020/12/14 06:39:29;;;;;;;2.30;2.10;;;21.10;53.30;;;;;;5073007;28;20977;-68
2020/12/14 06:42:09;;;;;;;2.10;1.90;;;21.10;53.30;;;;;;5073080;28;20190;-68
2020/12/14 06:44:44;;;;;;;1.93;1.60;;;21.10;53.30;;;;;;5072916;28;20538;-68
2020/12/14 06:47:17;;;;;;;2.50;1.57;;;21.10;53.30;;;;;;5073183;28;20408;-68
2020/12/14 06:49:44;;;;;;;2.20;2.00;;;21.10;53.30;;;;;;5074025;28;20889;-67
2020/12/14 06:52:10;;;;;;;2.40;1.63;;;21.10;53.30;;;;;;5073508;28;20431;-67
2020/12/14 06:54:43;;;;;;;2.40;2.20;;;21.10;53.30;;;;;;5073089;28;20420;-68
2020/12/14 06:57:14;;;;;;;2.30;2.07;;;21.10;53.20;;;;;;5073045;28;20404;-68
2020/12/14 06:59:49;;;;;;;2.23;2.03;;;21.10;53.30;;;;;;5072742;28;20392;-67
2020/12/14 07:02:14;;;;;;;1.90;1.70;;;21.10;53.30;;;;;;5072979;28;20417;-68
2020/12/14 07:04:41;;;;;;;2.30;2.07;;;21.10;53.20;;;;;;5072677;28;20405;-67
2020/12/14 07:07:07;;;;;;;3.17;2.13;;;21.10;53.20;;;;;;5072706;28;20174;-68
2020/12/14 07:09:43;;;;;;;2.50;2.30;;;21.10;53.20;;;;;;5072681;28;20963;-68
2020/12/14 07:12:09;;;;;;;2.80;2.10;;;21.20;53.30;;;;;;5072684;28;20205;-67
2020/12/14 07:14:43;;;;;;;3.00;2.23;;;21.20;53.20;;;;;;5072686;28;20409;-68
2020/12/14 07:17:23;;;;;;;2.20;2.00;;;21.20;53.20;;;;;;5072848;28;20512;-68
2020/12/14 07:19:55;;;;;;;2.50;1.90;;;21.30;53.20;;;;;;5072625;28;20939;-67
2020/12/14 07:22:21;;;;;;;2.70;2.00;;;21.30;53.20;;;;;;5072654;28;20424;-68
2020/12/14 07:25:00;;;;;;;2.77;2.20;;;21.30;53.20;;;;;;5072679;28;20396;-68
2020/12/14 07:27:27;;;;;;;3.70;1.90;;;21.40;53.20;;;;;;5072496;28;20409;-68
2020/12/14 07:30:06;;;;;;;3.43;2.27;;;21.40;53.20;;;;;;5072788;28;20710;-68
2020/12/14 07:32:32;;;;;;;3.90;2.40;;;21.40;53.10;;;;;;5074661;28;20420;-68
2020/12/14 07:34:58;;;;;;;3.20;2.40;;;21.40;53.00;;;;;;5076073;28;20400;-68
2020/12/14 07:37:25;;;;;;;2.70;2.00;;;21.50;53.10;;;;;;5075995;28;20499;-68
2020/12/14 07:39:51;;;;;;;3.63;2.00;;;21.50;53.00;;;;;;5076199;28;20452;-67
2020/12/14 07:42:28;;;;;;;3.97;2.20;;;21.50;53.00;;;;;;5075886;28;20950;-68
2020/12/14 07:45:12;;;;;;;2.80;1.90;;;21.50;52.90;;;;;;5076177;28;20385;-68
2020/12/14 07:47:39;;;;;;;3.43;2.37;;;21.60;53.00;;;;;;5075888;28;20937;-67
2020/12/14 07:50:11;;;;;;;4.07;2.17;;;21.50;52.90;;;;;;5075773;28;20412;-68
2020/12/14 07:52:37;;;;;;;4.50;3.50;;;21.50;52.90;;;;;;5075994;28;20428;-67
2020/12/14 07:55:05;;;;;;;2.73;2.40;;;21.60;52.90;;;;;;5075784;28;20420;-67
2020/12/14 07:57:33;;;;;;;2.70;1.93;;;21.60;52.90;;;;;;5075743;28;20910;-67
2020/12/14 08:00:00;;;;;;;6.37;2.70;;;21.60;52.90;;;;;;5075734;28;20419;-67
2020/12/14 08:02:28;;;;;;;2.80;2.23;;;21.60;52.90;;;;;;5075631;28;20771;-67
2020/12/14 08:05:06;;;;;;;2.77;2.13;;;21.60;52.90;;;;;;5075450;28;20946;-68
2020/12/14 08:07:43;;;;;;;4.53;2.13;;;21.60;52.90;;;;;;5075888;28;20409;-67
2020/12/14 08:10:09;;;;;;;3.97;2.63;;;21.60;52.90;;;;;;5075806;28;20393;-67
2020/12/14 08:12:42;;;;;;;2.70;2.23;;;21.60;52.90;;;;;;5075295;28;20455;-68
2020/12/14 08:15:19;;;;;;;4.17;2.13;;;21.70;53.00;;;;;;5075750;28;20420;-67
2020/12/14 08:17:46;;;;;;;3.93;2.30;;;21.70;52.90;;;;;;5075422;28;20407;-68
2020/12/14 08:20:25;;;;;;;3.40;2.77;;;21.60;52.90;;;;;;5075370;28;20404;-67
2020/12/14 08:22:51;;;;;;;3.47;2.40;;;21.70;53.00;;;;;;5075282;28;20468;-68
2020/12/14 08:25:25;;;;;;;20.83;2.60;;;21.60;53.00;;;;;;5075454;28;20480;-67
2020/12/14 08:28:02;;;;;;;3.90;2.37;;;21.60;53.00;;;;;;5075474;28;20158;-67
2020/12/14 08:30:28;;;;;;;2.80;2.10;;;21.70;53.00;;;;;;5075229;28;20863;-67
2020/12/14 08:33:26;;;;;;;3.27;2.73;;;21.70;53.10;;;;;;5075004;28;20926;-68
2020/12/14 08:35:54;;;;;;;4.53;2.13;;;21.70;53.00;;;;;;5041511;28;20424;-68
2020/12/14 08:38:25;;;;;;;3.57;2.57;;;21.60;53.00;;;;;;5074971;28;20404;-67
2020/12/14 08:41:05;;;;;;;4.07;2.40;;;21.70;53.10;;;;;;5075026;28;20397;-66
2020/12/14 08:43:33;;;;;;;3.20;2.33;;;21.70;53.00;;;;;;5074257;28;20432;-66
2020/12/14 08:46:15;;;;;;;2.83;2.43;;;21.70;53.00;;;;;;5074754;28;20484;-68
2020/12/14 08:48:50;;;;;;;3.23;2.50;;;21.70;53.00;;;;;;5075127;28;20385;-67
2020/12/14 08:51:28;;;;;;;4.33;2.33;;;21.70;53.00;;;;;;5074950;28;20419;-70
2020/12/14 08:53:56;;;;;;;3.13;2.37;;;21.70;53.00;;;;;;5073451;28;20423;-69
2020/12/14 08:56:32;;;;;;;5.57;2.60;;;21.70;53.00;;;;;;5076432;28;20451;-66
2020/12/14 08:58:59;;;;;;;6.67;2.27;;;21.70;53.00;;;;;;5074835;28;20480;-66
2020/12/14 09:01:27;;;;;;;5.47;2.60;;;21.70;53.00;;;;;;5074504;28;20440;-66
2020/12/14 09:03:58;;;;;;;4.50;2.87;;;21.70;53.00;;;;;;5074436;28;20447;-66
2020/12/14 09:06:28;;;;;;;3.40;2.33;;;21.80;53.00;;;;;;5074425;28;20447;-66
2020/12/14 09:09:06;;;;;;;3.87;2.63;;;21.80;53.00;;;;;;5074415;28;20419;-65
2020/12/14 09:11:34;;;;;;;3.67;2.63;;;21.80;53.00;;;;;;5074402;28;20482;-65
2020/12/14 09:14:06;;;;;;;4.87;2.67;;;21.80;53.00;;;;;;5074553;28;20385;-66
2020/12/14 09:16:33;;;;;;;4.50;2.17;;;21.80;53.00;;;;;;5074175;28;20413;-66
2020/12/14 09:19:01;;;;;;;2.67;2.03;;;21.80;53.00;;;;;;5074177;28;20525;-67
2020/12/14 09:21:26;;;;;;;4.40;2.77;;;21.80;53.00;;;;;;5073958;28;20428;-67
2020/12/14 09:24:12;;;;;;;4.73;2.67;;;21.80;53.00;;;;;;5072848;28;20420;-67
2020/12/14 09:26:39;;;;;;;5.33;2.70;;;21.80;53.00;;;;;;5073975;28;20205;-67
2020/12/14 09:29:05;;;;;;;3.67;2.50;;;21.80;53.10;;;;;;5073981;28;20484;-67
2020/12/14 09:31:30;;;;;;;3.50;2.37;;;21.90;53.10;;;;;;5073965;28;20482;-66
2020/12/14 09:33:56;;;;;;;4.63;2.83;;;21.80;53.00;;;;;;5072490;28;20178;-66
2020/12/14 09:36:22;;;;;;;6.03;3.83;;;21.80;53.10;;;;;;5074090;28;20169;-66
2020/12/14 09:38:48;;;;;;;5.60;2.93;;;21.80;53.10;;;;;;5073773;28;20167;-67
2020/12/14 09:41:14;;;;;;;3.93;2.60;;;21.80;53.00;;;;;;5073776;28;20400;-67
2020/12/14 09:43:41;;;;;;;4.60;2.60;;;21.80;53.00;;;;;;5073697;28;20618;-68
2020/12/14 09:46:07;;;;;;;5.47;3.00;;;21.80;53.00;;;;;;5073515;28;20221;-68
2020/12/14 09:48:33;;;;;;;7.83;3.17;;;21.90;53.10;;;;;;5073642;28;20393;-66
2020/12/14 09:50:59;;;;;;;4.97;3.23;;;21.80;53.00;;;;;;5073495;28;20644;-65
2020/12/14 09:53:25;;;;;;;6.17;3.30;;;21.80;53.00;;;;;;5073504;28;20614;-67
2020/12/14 09:55:51;;;;;;;3.90;2.70;;;21.90;53.10;;;;;;5072639;28;20393;-67
2020/12/14 09:58:16;;;;;;;5.43;2.73;;;21.90;53.10;;;;;;5073699;28;20184;-66
2020/12/14 10:00:42;;;;;;;3.73;2.90;;;21.90;53.10;;;;;;5073409;28;20205;-66
2020/12/14 10:03:07;;;;;;;5.57;3.20;;;21.90;53.10;;;;;;5072695;28;20202;-67
2020/12/14 10:05:33;;;;;;;4.27;2.93;;;21.90;53.10;;;;;;5073355;28;20198;-66
2020/12/14 10:07:59;;;;;;;7.03;3.73;;;21.90;53.10;;;;;;5073598;28;20693;-67
2020/12/14 10:10:24;;;;;;;4.80;3.37;;;21.90;53.10;;;;;;5073262;28;20257;-67
2020/12/14 10:12:50;;;;;;;5.47;3.33;;;21.90;53.10;;;;;;5073014;28;20206;-66
2020/12/14 10:15:15;;;;;;;4.60;2.70;;;21.90;53.10;;;;;;5073141;28;20528;-67
2020/12/14 10:17:41;;;;;;;6.30;3.33;;;21.90;53.10;;;;;;5073170;28;20182;-66
2020/12/14 10:20:07;;;;;;;5.10;3.10;;;21.90;53.10;;;;;;5073454;28;20629;-67
2020/12/14 10:22:45;;;;;;;6.10;3.13;;;21.90;53.10;;;;;;5112332;27;20544;-67
2020/12/14 10:25:11;;;;;;;5.93;2.40;;;21.90;53.10;;;;;;5110924;28;20853;-66
2020/12/14 10:27:37;;;;;;;3.70;2.60;;;21.90;53.10;;;;;;5110943;28;20161;-67
2020/12/14 10:30:03;;;;;;;6.43;2.80;;;21.90;53.10;;;;;;5110844;28;20246;-67
2020/12/14 10:32:29;;;;;;;3.23;2.60;;;22.00;53.20;;;;;;5110942;28;20481;-67
2020/12/14 10:34:55;;;;;;;4.30;2.73;;;21.90;53.10;;;;;;5110972;28;20415;-67
2020/12/14 10:37:20;;;;;;;3.67;2.70;;;21.90;53.10;;;;;;5109891;28;20234;-67
2020/12/14 10:39:46;;;;;;;5.67;3.20;;;22.00;53.20;;;;;;5110901;28;20659;-67
2020/12/14 10:42:12;;;;;;;4.27;2.63;;;21.90;53.10;;;;;;5110752;28;20205;-66
2020/12/14 10:44:38;;;;;;;5.10;2.87;;;22.00;53.20;;;;;;5109303;28;20219;-67
2020/12/14 10:47:05;;;;;;;4.40;2.90;;;22.00;53.10;;;;;;5110619;28;20750;-67
2020/12/14 10:49:31;;;;;;;4.13;3.10;;;22.00;53.10;;;;;;5110477;28;20402;-66
2020/12/14 10:52:00;;;;;;;4.23;2.40;;;22.00;53.10;;;;;;5110370;28;20933;-66
2020/12/14 10:54:26;;;;;;;3.27;2.30;;;22.00;53.20;;;;;;5110399;28;20777;-66
2020/12/14 10:56:51;;;;;;;4.17;2.70;;;22.00;53.10;;;;;;5110322;28;20407;-67
2020/12/14 10:59:17;;;;;;;3.30;2.47;;;22.00;53.20;;;;;;5110569;28;20541;-66
2020/12/14 11:01:43;;;;;;;5.83;2.63;;;22.00;53.20;;;;;;5110107;28;20235;-67
2020/12/14 11:04:08;;;;;;;4.33;2.73;;;22.00;53.20;;;;;;5108453;28;20578;-67
2020/12/14 11:06:35;;;;;;;7.90;2.63;;;22.00;53.20;;;;;;5110314;28;20169;-67
2020/12/14 11:09:00;;;;;;;5.43;2.90;;;22.00;53.20;;;;;;5110437;28;20173;-67
2020/12/14 11:11:31;;;;;;;3.20;2.23;;;22.00;53.20;;;;;;5110265;28;20431;-66
2020/12/14 11:13:59;;;;;;;4.53;2.67;;;22.00;53.20;;;;;;5110276;28;20165;-66
2020/12/14 11:16:26;;;;;;;4.80;2.50;;;22.00;53.20;;;;;;5109967;28;20482;-66
2020/12/14 11:18:52;;;;;;;6.30;2.40;;;22.00;53.20;;;;;;5109864;28;20414;-67
2020/12/14 11:21:17;;;;;;;5.20;3.20;;;22.00;53.20;;;;;;5109617;28;20462;-66
2020/12/14 11:23:43;;;;;;;3.20;2.00;;;22.00;53.20;;;;;;5110103;28;20165;-67
2020/12/14 11:26:08;;;;;;;6.37;2.57;;;22.00;53.20;;;;;;5109678;28;20165;-67
2020/12/14 11:28:34;;;;;;;4.00;2.60;;;22.00;53.20;;;;;;5108477;28;20618;-67
2020/12/14 11:30:59;;;;;;;3.67;2.10;;;22.00;53.20;;;;;;5109601;28;20182;-66
2020/12/14 11:33:25;;;;;;;3.37;2.20;;;22.00;53.20;;;;;;5100157;28;20277;-66
2020/12/14 11:35:51;;;;;;;2.30;2.03;;;22.00;53.20;;;;;;5096037;28;20178;-67
2020/12/14 11:38:16;;;;;;;2.97;2.40;;;22.00;53.20;;;;;;5096264;28;20178;-67
2020/12/14 11:40:42;;;;;;;4.30;2.47;;;22.00;53.20;;;;;;5096081;28;20209;-66
2020/12/14 11:43:07;;;;;;;5.53;2.70;;;22.00;53.20;;;;;;5095843;28;20606;-66
2020/12/14 11:45:33;;;;;;;3.90;3.03;;;22.00;53.20;;;;;;5095823;28;20166;-66
2020/12/14 11:47:59;;;;;;;5.30;2.60;;;22.00;53.20;;;;;;5095798;28;20165;-66
2020/12/14 11:50:24;;;;;;;4.23;2.80;;;22.00;53.20;;;;;;5095939;28;20533;-66
2020/12/14 11:52:50;;;;;;;4.47;2.40;;;22.00;53.20;;;;;;5095570;28;20185;-66
2020/12/14 11:55:15;;;;;;;3.50;2.00;;;22.00;53.20;;;;;;5095637;28;20177;-66
2020/12/14 11:57:41;;;;;;;3.70;2.30;;;22.00;53.20;;;;;;5095617;28;20545;-64
2020/12/14 12:00:09;;;;;;;3.53;2.20;;;22.00;53.20;;;;;;5095854;28;20624;-65
2020/12/14 12:02:35;;;;;;;3.77;2.13;;;22.00;53.20;;;;;;5094100;28;20213;-66
2020/12/14 12:05:01;;;;;;;3.70;2.70;;;22.00;53.20;;;;;;5095427;28;20778;-66
2020/12/14 12:07:27;;;;;;;4.80;2.27;;;22.00;53.20;;;;;;5095550;28;20146;-65
2020/12/14 12:09:52;;;;;;;3.63;2.17;;;22.00;53.20;;;;;;5095686;28;20192;-66
2020/12/14 12:12:18;;;;;;;4.17;2.50;;;22.00;53.20;;;;;;5095198;28;20194;-65
2020/12/14 12:14:44;;;;;;;5.23;2.70;;;22.00;53.20;;;;;;5095318;28;20408;-66
2020/12/14 12:17:09;;;;;;;3.60;2.17;;;22.00;53.20;;;;;;5095206;28;20188;-65
2020/12/14 12:19:35;;;;;;;2.30;2.00;;;22.00;53.20;;;;;;5095137;28;20180;-66
2020/12/14 12:22:01;;;;;;;3.60;2.10;;;22.00;53.20;;;;;;5093619;28;20240;-65
2020/12/14 12:24:27;;;;;;;7.37;2.50;;;22.00;53.20;;;;;;5095416;28;20150;-66
2020/12/14 12:26:53;;;;;;;3.47;2.10;;;22.00;53.20;;;;;;5095058;28;20475;-66
2020/12/14 12:29:19;;;;;;;2.90;2.07;;;22.00;53.20;;;;;;5093519;28;20177;-67
2020/12/14 12:31:49;;;;;;;5.03;2.63;;;22.00;53.20;;;;;;5094896;28;20190;-67
2020/12/14 12:34:14;;;;;;;4.27;2.70;;;22.00;53.20;;;;;;5094874;28;20174;-66
2020/12/14 12:36:40;;;;;;;5.07;2.40;;;21.90;53.30;;;;;;5094872;28;20419;-66
2020/12/14 12:39:06;;;;;;;5.37;2.57;;;21.90;53.30;;;;;;5094789;28;20546;-67
2020/12/14 12:41:31;;;;;;;3.60;2.20;;;21.90;53.30;;;;;;5094881;28;20217;-66
2020/12/14 12:43:57;;;;;;;3.43;1.97;;;21.90;53.20;;;;;;5094054;28;20170;-66
2020/12/14 12:46:27;;;;;;;4.53;1.90;;;21.90;53.20;;;;;;5094270;28;20649;-66
2020/12/14 12:48:52;;;;;;;3.10;2.30;;;21.90;53.20;;;;;;5094610;28;20166;-66
2020/12/14 12:51:18;;;;;;;4.43;3.17;;;21.90;53.30;;;;;;5094691;28;20416;-67